createdAt,value
2023-02-08T00:02:31.949Z,26.47
2023-02-08T00:06:35.288Z,31.13
2023-02-08T00:10:38.916Z,31.07
2023-02-08T00:14:45.950Z,23.97
2023-02-08T00:18:52.435Z,28.87
2023-02-08T00:22:56.576Z,28.70
2023-02-08T00:26:59.556Z,31.90
2023-02-08T00:31:02.855Z,25.43
2023-02-08T00:35:10.575Z,24.83
2023-02-08T00:39:13.857Z,30.80
2023-02-08T00:43:17.049Z,27.87
2023-02-08T00:47:20.119Z,29.40
2023-02-08T00:51:27.332Z,24.00
2023-02-08T00:55:34.146Z,30.37
2023-02-08T00:59:39.030Z,32.57
2023-02-08T01:03:46.558Z,31.60
2023-02-08T01:07:51.170Z,32.93
2023-02-08T01:12:02.333Z,26.00
2023-02-08T01:16:11.456Z,27.43
2023-02-08T01:20:19.798Z,25.00
2023-02-08T01:24:26.160Z,30.47
2023-02-08T01:28:29.335Z,30.57
2023-02-08T01:32:35.343Z,29.97
2023-02-08T01:36:42.046Z,29.17
2023-02-08T01:40:46.588Z,27.83
2023-02-08T01:45:23.480Z,22.13
2023-02-08T01:49:34.713Z,24.83
2023-02-08T01:53:38.356Z,23.07
2023-02-08T01:57:46.359Z,23.23
2023-02-08T02:01:55.622Z,25.60
2023-02-08T02:06:05.281Z,23.07
2023-02-08T02:10:15.208Z,22.40
2023-02-08T02:14:20.832Z,28.03
2023-02-08T02:18:26.702Z,28.13
2023-02-08T02:23:07.817Z,23.00
2023-02-08T02:27:45.823Z,25.73
2023-02-08T02:32:11.738Z,29.80
2023-02-08T02:36:22.611Z,28.10
2023-02-08T02:40:38.878Z,27.33
2023-02-08T02:44:54.847Z,24.37
2023-02-08T02:49:05.430Z,22.17
2023-02-08T02:53:18.074Z,28.93
2023-02-08T02:57:27.140Z,22.33
2023-02-08T03:01:35.233Z,19.77
2023-02-08T03:05:39.666Z,23.00
2023-02-08T03:09:54.020Z,23.17
2023-02-08T03:14:10.700Z,22.77
2023-02-08T03:18:27.271Z,25.77
2023-02-08T03:22:42.583Z,24.13
2023-02-08T03:26:58.033Z,24.20
2023-02-08T03:31:13.888Z,24.30
2023-02-08T03:35:21.821Z,26.83
2023-02-08T03:39:32.972Z,24.40
2023-02-08T03:43:42.676Z,26.53
2023-02-08T03:47:49.144Z,19.27
2023-02-08T03:51:54.711Z,29.10
2023-02-08T03:56:05.406Z,27.63
2023-02-08T04:00:12.173Z,27.60
2023-02-08T04:04:16.571Z,29.57
2023-02-08T04:08:19.907Z,23.47
2023-02-08T04:12:27.410Z,26.73
2023-02-08T04:16:30.684Z,26.50
2023-02-08T04:20:33.895Z,24.60
2023-02-08T04:24:37.176Z,21.17
2023-02-08T04:28:42.831Z,24.73
2023-02-08T04:32:47.960Z,28.43
2023-02-08T04:36:50.986Z,25.73
2023-02-08T04:40:55.446Z,22.73
2023-02-08T04:45:03.823Z,24.47
2023-02-08T04:49:17.815Z,26.80
2023-02-08T04:53:22.646Z,37.27
2023-02-08T04:57:25.698Z,38.47
2023-02-08T05:01:30.662Z,35.87
2023-02-08T05:05:36.772Z,34.80
2023-02-08T05:09:42.096Z,26.13
2023-02-08T05:13:45.322Z,29.10
2023-02-08T05:17:49.883Z,31.40
2023-02-08T05:21:55.343Z,22.87
2023-02-08T05:26:01.647Z,30.13
2023-02-08T05:30:08.910Z,32.60
2023-02-08T05:34:14.478Z,29.97
2023-02-08T05:38:17.560Z,28.83
2023-02-08T05:42:24.793Z,25.60
2023-02-08T05:46:27.872Z,29.93
2023-02-08T05:50:38.310Z,31.57
2023-02-08T05:54:41.810Z,32.27
2023-02-08T05:58:47.258Z,29.67
2023-02-08T06:02:51.124Z,37.97
2023-02-08T06:06:57.848Z,33.73
2023-02-08T06:11:04.255Z,35.43
2023-02-08T06:15:10.936Z,24.97
2023-02-08T06:19:14.812Z,40.70
2023-02-08T06:23:21.660Z,34.20
2023-02-08T06:27:26.969Z,33.10
2023-02-08T06:31:30.262Z,35.43
2023-02-08T06:35:33.674Z,36.03
2023-02-08T06:39:39.715Z,36.97
2023-02-08T06:43:44.059Z,35.83
2023-02-08T06:47:49.922Z,31.43
2023-02-08T06:51:53.145Z,31.40
2023-02-08T06:56:01.650Z,30.97
2023-02-08T07:00:07.088Z,32.77
2023-02-08T07:04:11.787Z,32.17
2023-02-08T07:08:14.859Z,34.07
2023-02-08T07:12:19.302Z,39.53
2023-02-08T07:16:23.487Z,39.10
2023-02-08T07:20:32.253Z,28.63
2023-02-08T07:24:37.981Z,31.43
2023-02-08T07:28:46.895Z,39.63
2023-02-08T07:32:50.307Z,34.10
2023-02-08T07:36:54.501Z,43.50
2023-02-08T07:41:05.449Z,40.33
2023-02-08T07:45:10.379Z,38.40
2023-02-08T07:49:14.503Z,30.67
2023-02-08T07:53:17.877Z,32.67
2023-02-08T07:57:22.222Z,44.00
2023-02-08T08:01:27.320Z,40.00
2023-02-08T08:05:30.544Z,37.70
2023-02-08T08:09:33.547Z,39.60
2023-02-08T08:13:36.567Z,35.77
2023-02-08T08:17:42.348Z,38.67
2023-02-08T08:21:46.929Z,40.80
2023-02-08T08:25:50.328Z,48.03
2023-02-08T08:29:53.799Z,46.80
2023-02-08T08:34:00.768Z,44.33
2023-02-08T08:38:04.786Z,43.47
2023-02-08T08:42:07.798Z,40.13
2023-02-08T08:46:11.877Z,50.50
2023-02-08T08:50:16.735Z,35.13
2023-02-08T08:54:21.943Z,34.50
2023-02-08T08:58:24.993Z,46.17
2023-02-08T09:02:28.115Z,50.93
2023-02-08T09:06:37.044Z,38.97
2023-02-08T09:10:43.427Z,45.27
2023-02-08T09:14:46.701Z,37.90
2023-02-08T09:18:49.707Z,39.03
2023-02-08T09:23:03.636Z,44.13
2023-02-08T09:27:06.970Z,38.10
2023-02-08T09:31:11.285Z,49.23
2023-02-08T09:35:15.704Z,50.23
2023-02-08T09:39:24.413Z,41.40
2023-02-08T09:43:41.685Z,40.73
2023-02-08T09:47:51.960Z,40.83
2023-02-08T09:51:59.381Z,39.00
2023-02-08T09:56:07.094Z,32.87
2023-02-08T10:00:15.827Z,43.33
2023-02-08T10:04:27.352Z,40.80
2023-02-08T10:08:35.590Z,30.17
2023-02-08T10:12:47.861Z,35.13
2023-02-08T10:17:13.263Z,38.73
2023-02-08T10:21:31.613Z,37.60
2023-02-08T10:26:05.684Z,34.63
2023-02-08T10:30:26.845Z,25.93
2023-02-08T10:34:42.141Z,31.53
2023-02-08T10:38:48.495Z,30.70
2023-02-08T10:42:59.982Z,33.63
2023-02-08T10:47:14.503Z,35.00
2023-02-08T10:51:21.512Z,33.23
2023-02-08T10:55:24.861Z,34.20
2023-02-08T10:59:35.333Z,32.87
2023-02-08T11:03:40.297Z,35.67
2023-02-08T11:07:50.538Z,32.87
2023-02-08T11:12:00.702Z,37.80
2023-02-08T11:16:08.323Z,40.93
2023-02-08T11:20:26.499Z,36.23
2023-02-08T11:24:35.998Z,33.43
2023-02-08T11:28:39.749Z,35.73
2023-02-08T11:32:46.303Z,40.70
2023-02-08T11:37:00.919Z,34.77
2023-02-08T11:41:09.307Z,31.13
2023-02-08T11:45:22.144Z,39.03
2023-02-08T11:49:29.862Z,40.60
2023-02-08T11:53:37.738Z,37.40
2023-02-08T11:57:55.448Z,34.93
2023-02-08T12:01:58.798Z,35.87
2023-02-08T12:06:23.205Z,30.50
2023-02-08T12:10:47.439Z,31.33
2023-02-08T12:14:59.800Z,34.37
2023-02-08T12:19:32.475Z,34.40
2023-02-08T12:24:05.980Z,33.27
2023-02-08T12:28:18.007Z,33.57
2023-02-08T12:32:46.653Z,35.07
2023-02-08T12:37:30.390Z,33.07
2023-02-08T12:41:44.089Z,29.80
2023-02-08T12:46:17.074Z,35.33
2023-02-08T12:50:28.257Z,31.33
2023-02-08T12:54:37.689Z,30.40
2023-02-08T12:58:46.883Z,32.73
2023-02-08T13:02:57.831Z,30.70
2023-02-08T13:07:12.452Z,35.07
2023-02-08T13:11:24.634Z,39.00
2023-02-08T13:15:33.936Z,35.10
2023-02-08T13:19:59.790Z,29.57
2023-02-08T13:24:08.100Z,38.13
2023-02-08T13:28:20.457Z,27.20
2023-02-08T13:32:30.271Z,34.33
2023-02-08T13:36:35.983Z,29.47
2023-02-08T13:40:40.533Z,28.30
2023-02-08T13:44:43.843Z,26.03
2023-02-08T13:48:53.922Z,30.83
2023-02-08T13:52:57.219Z,27.77
2023-02-08T13:57:02.766Z,30.63
2023-02-08T14:01:22.063Z,32.37
2023-02-08T14:05:50.577Z,27.63
2023-02-08T14:10:18.766Z,33.37
2023-02-08T14:14:26.775Z,28.97
2023-02-08T14:18:31.428Z,35.40
2023-02-08T14:22:40.351Z,29.10
2023-02-08T14:26:43.630Z,27.50
2023-02-08T14:30:54.012Z,31.43
2023-02-08T14:35:10.532Z,29.83
2023-02-08T14:39:32.034Z,33.97
2023-02-08T14:43:39.020Z,38.33
2023-02-08T14:48:20.578Z,37.93
2023-02-08T14:52:25.943Z,31.90
2023-02-08T14:56:31.780Z,29.20
2023-02-08T15:00:37.734Z,31.00
2023-02-08T15:04:48.604Z,32.73
2023-02-08T15:08:57.792Z,39.23
2023-02-08T15:13:06.428Z,33.30
2023-02-08T15:17:21.363Z,32.80
2023-02-08T15:21:31.708Z,29.63
2023-02-08T15:25:36.265Z,29.87
2023-02-08T15:29:44.969Z,27.70
2023-02-08T15:33:49.106Z,20.13
2023-02-08T15:37:58.738Z,32.13
2023-02-08T15:42:02.747Z,36.93
2023-02-08T15:46:10.433Z,25.73
2023-02-08T15:50:20.520Z,28.10
2023-02-08T15:54:26.769Z,30.07
2023-02-08T15:58:35.066Z,27.00
2023-02-08T16:02:38.121Z,22.83
2023-02-08T16:06:47.480Z,24.83
2023-02-08T16:10:55.700Z,27.17
2023-02-08T16:15:02.273Z,34.33
2023-02-08T16:19:10.765Z,31.80
2023-02-08T16:23:26.429Z,31.87
2023-02-08T16:27:33.842Z,31.03
2023-02-08T16:31:37.344Z,36.30
2023-02-08T16:35:41.682Z,34.37
2023-02-08T16:40:06.203Z,40.90
2023-02-08T16:44:26.814Z,30.20
2023-02-08T16:48:36.157Z,38.47
2023-02-08T16:52:39.420Z,39.63
2023-02-08T16:56:46.593Z,39.43
2023-02-08T17:00:51.020Z,38.90
2023-02-08T17:04:55.454Z,34.33
2023-02-08T17:09:04.106Z,30.73
2023-02-08T17:13:19.963Z,36.10
2023-02-08T17:17:26.320Z,43.77
2023-02-08T17:21:31.430Z,41.13
2023-02-08T17:25:36.479Z,45.23
2023-02-08T17:29:40.556Z,46.13
2023-02-08T17:33:47.479Z,46.93
2023-02-08T17:37:53.543Z,43.93
2023-02-08T17:41:57.759Z,32.03
2023-02-08T17:46:01.210Z,34.57
2023-02-08T17:50:06.565Z,39.40
2023-02-08T17:54:16.776Z,43.50
2023-02-08T17:58:20.250Z,36.10
2023-02-08T18:02:23.715Z,44.07
2023-02-08T18:06:28.946Z,37.30
2023-02-08T18:10:32.907Z,42.00
2023-02-08T18:14:38.143Z,51.67
2023-02-08T18:18:44.314Z,39.23
2023-02-08T18:22:49.010Z,39.97
2023-02-08T18:26:59.912Z,42.43
2023-02-08T18:31:04.921Z,39.27
2023-02-08T18:35:10.668Z,40.17
2023-02-08T18:39:16.220Z,40.07
2023-02-08T18:43:21.953Z,34.47
2023-02-08T18:47:25.505Z,42.83
2023-02-08T18:51:29.975Z,47.10
2023-02-08T18:55:34.369Z,41.67
2023-02-08T18:59:38.713Z,45.97
2023-02-08T19:03:42.817Z,47.60
2023-02-08T19:07:45.955Z,43.70
2023-02-08T19:11:50.463Z,41.70
2023-02-08T19:15:53.640Z,38.27
2023-02-08T19:19:56.676Z,45.40
2023-02-08T19:24:00.713Z,38.90
2023-02-08T19:28:08.408Z,39.50
2023-02-08T19:32:11.523Z,39.90
2023-02-08T19:36:18.379Z,31.30
2023-02-08T19:40:24.724Z,45.93
2023-02-08T19:44:30.795Z,37.50
2023-02-08T19:48:34.038Z,30.83
2023-02-08T19:52:42.786Z,29.20
2023-02-08T19:56:46.736Z,24.97
2023-02-08T20:00:52.009Z,30.43
2023-02-08T20:04:56.480Z,32.47
2023-02-08T20:09:00.584Z,30.70
2023-02-08T20:13:03.617Z,31.80
2023-02-08T20:17:08.196Z,21.33
2023-02-08T20:21:11.689Z,25.90
2023-02-08T20:25:14.872Z,25.13
2023-02-08T20:29:18.706Z,22.17
2023-02-08T20:33:23.216Z,25.27
2023-02-08T20:37:28.236Z,22.93
2023-02-08T20:41:33.917Z,26.00
2023-02-08T20:45:43.378Z,25.07
2023-02-08T20:49:54.262Z,22.67
2023-02-08T20:53:59.277Z,25.60
2023-02-08T20:58:02.347Z,19.83
2023-02-08T21:02:05.785Z,20.73
2023-02-08T21:06:19.106Z,23.57
2023-02-08T21:10:24.520Z,24.93
2023-02-08T21:14:27.603Z,19.07
2023-02-08T21:18:30.853Z,23.13
2023-02-08T21:22:35.487Z,19.73
2023-02-08T21:26:40.879Z,17.90
2023-02-08T21:30:44.640Z,19.50
2023-02-08T21:34:51.040Z,18.20
2023-02-08T21:38:55.675Z,18.57
2023-02-08T21:42:59.360Z,17.93
2023-02-08T21:47:02.681Z,13.47
2023-02-08T21:51:23.539Z,22.10
2023-02-08T21:55:29.180Z,15.77
2023-02-08T21:59:39.269Z,20.73
2023-02-08T22:03:42.338Z,25.03
2023-02-08T22:07:49.067Z,17.53
2023-02-08T22:11:57.253Z,24.87
2023-02-08T22:16:00.484Z,14.30
2023-02-08T22:20:06.333Z,17.43
2023-02-08T22:24:09.454Z,15.50
2023-02-08T22:28:14.805Z,23.17
2023-02-08T22:32:17.917Z,18.63
2023-02-08T22:36:22.522Z,12.47
2023-02-08T22:40:30.475Z,18.07
2023-02-08T22:44:39.649Z,19.27
2023-02-08T22:48:45.796Z,28.97
2023-02-08T22:52:50.915Z,17.07
2023-02-08T22:56:58.520Z,17.23
2023-02-08T23:01:03.080Z,16.37
2023-02-08T23:05:06.813Z,18.37
2023-02-08T23:09:13.557Z,17.83
2023-02-08T23:13:19.338Z,14.53
2023-02-08T23:17:23.761Z,12.13
2023-02-08T23:21:26.999Z,20.63
2023-02-08T23:25:30.468Z,16.43
2023-02-08T23:29:35.125Z,20.03
2023-02-08T23:33:39.962Z,15.57
2023-02-08T23:37:47.171Z,14.10
2023-02-08T23:41:52.425Z,22.60
2023-02-08T23:45:55.492Z,21.97
2023-02-08T23:50:00.243Z,23.30
2023-02-08T23:54:03.478Z,20.43
2023-02-08T23:58:06.503Z,18.33
